Time;durP1;ratioP1;P1;durP2;ratioP2;P2;SDS_P1;SDS_P2;PMS_P1;PMS_P2;Temp;Humidity;BMP_temperature;BMP_pressure;BME280_temperature;BME280_humidity;BME280_pressure;Samples;Min_cycle;Max_cycle;Signal;HPM_P1;HPM_P2
2023/03/20 00:01:00;;;;;;;;;;;;;;;28.63;72.01;100961.06;5043352;27;70094;-38
2023/03/20 00:03:30;;;;;;;;;;;;;;;28.64;71.32;100964.59;5042298;28;66464;-38
2023/03/20 00:06:00;;;;;;;;;;;;;;;28.66;71.63;100965.25;5042337;28;69386;-38
2023/03/20 00:08:31;;;;;;;;;;;;;;;28.66;71.47;100976.03;5046665;27;66512;-39
2023/03/20 00:11:01;;;;;;;;;;;;;;;28.75;70.85;100972.09;5043395;28;69841;-39
2023/03/20 00:13:31;;;;;;;;;;;;;;;28.77;67.45;100983.53;5041428;28;66426;-40
2023/03/20 00:16:04;;;;;;;;;;;;;;;28.82;66.47;100985.63;5045308;28;69410;-39
2023/03/20 00:18:35;;;;;;;;;;;;;;;28.86;65.04;100982.34;5041840;28;65675;-39
2023/03/20 00:21:05;;;;;;;;;;;;;;;28.92;64.87;100989.63;5041578;27;70406;-39
2023/03/20 00:23:36;;;;;;;;;;;;;;;28.96;64.38;100990.84;5042740;28;66346;-40
2023/03/20 00:26:09;;;;;;;;;;;;;;;29.00;63.51;100987.75;5040829;27;69748;-38
2023/03/20 00:28:43;;;;;;;;;;;;;;;29.03;62.82;100995.44;5043271;28;66276;-39
2023/03/20 00:31:30;;;;;;;;;;;;;;;29.06;62.40;101000.44;5041691;28;70479;-39
2023/03/20 00:34:02;;;;;;;;;;;;;;;29.10;61.95;101009.81;5043251;28;66290;-38
2023/03/20 00:36:33;;;;;;;;;;;;;;;29.12;62.24;101005.06;5049365;27;70218;-39
2023/03/20 00:39:03;;;;;;;;;;;;;;;29.16;62.23;101009.00;5039187;28;66088;-39
2023/03/20 00:41:35;;;;;;;;;;;;;;;29.19;62.19;101008.59;5054508;28;69337;-39
2023/03/20 00:44:08;;;;;;;;;;;;;;;29.23;62.86;101009.84;5052955;28;65835;-40
2023/03/20 00:46:39;;;;;;;;;;;;;;;29.25;63.20;101007.75;5047343;27;70814;-38
2023/03/20 00:49:10;;;;;;;;;;;;;;;29.31;63.15;101012.34;5048217;28;66407;-39
2023/03/20 00:51:41;;;;;;;;;;;;;;;29.33;63.04;101015.66;5047584;28;70734;-39
2023/03/20 00:54:12;;;;;;;;;;;;;;;29.35;63.02;101018.16;5040676;28;67208;-39
2023/03/20 00:56:51;;;;;;;;;;;;;;;29.37;62.33;101018.81;5052640;28;70472;-40
2023/03/20 00:59:24;;;;;;;;;;;;;;;29.37;62.48;101022.34;5045648;28;66532;-38
2023/03/20 01:01:55;;;;;;;;;;;;;;;29.42;62.08;101023.56;5047445;28;69766;-39
2023/03/20 01:04:30;;;;;;;;;;;;;;;29.43;61.48;101019.84;5040164;28;66657;-38
2023/03/20 01:07:00;;;;;;;;;;;;;;;29.45;61.38;101026.72;5047691;28;69722;-38
2023/03/20 01:09:31;;;;;;;;;;;;;;;29.48;61.55;101028.16;5046151;28;66564;-39
2023/03/20 01:12:02;;;;;;;;;;;;;;;29.50;61.42;101023.38;5052290;28;69206;-39
2023/03/20 01:14:32;;;;;;;;;;;;;;;29.51;60.86;101030.44;5042955;28;66603;-38
2023/03/20 01:17:03;;;;;;;;;;;;;;;29.53;61.06;101042.72;5041895;27;69966;-38
2023/03/20 01:19:35;;;;;;;;;;;;;;;29.54;60.47;101038.97;5043090;28;67381;-39
2023/03/20 01:22:06;;;;;;;;;;;;;;;29.57;60.04;101049.38;5050976;28;70015;-38
2023/03/20 01:24:36;;;;;;;;;;;;;;;29.59;60.41;101046.47;5047525;27;66129;-38
2023/03/20 01:27:13;;;;;;;;;;;;;;;29.61;60.23;101038.97;5040196;28;69833;-39
2023/03/20 01:29:45;;;;;;;;;;;;;;;29.62;60.00;101046.03;5041573;27;66307;-40
2023/03/20 01:32:17;;;;;;;;;;;;;;;29.65;59.71;101044.84;5050905;27;70617;-38
2023/03/20 01:34:53;;;;;;;;;;;;;;;29.67;59.64;101057.09;5063230;27;66176;-38
2023/03/20 01:37:25;;;;;;;;;;;;;;;29.68;59.36;101056.06;5040867;28;70378;-39
2023/03/20 01:40:01;;;;;;;;;;;;;;;29.70;59.37;101053.97;5078494;27;66328;-39
2023/03/20 01:42:33;;;;;;;;;;;;;;;29.72;58.74;101065.41;5055065;28;70786;-38
2023/03/20 01:45:15;;;;;;;;;;;;;;;29.75;58.71;101069.56;5051496;28;66254;-38
2023/03/20 01:47:47;;;;;;;;;;;;;;;29.75;58.86;101064.97;5049999;27;70756;-38
2023/03/20 01:50:25;;;;;;;;;;;;;;;29.79;58.40;101068.13;5048851;28;66607;-37
2023/03/20 01:53:07;;;;;;;;;;;;;;;29.82;58.72;101065.00;5079780;27;70397;-43
2023/03/20 01:55:44;;;;;;;;;;;;;;;29.83;58.62;101064.78;5055070;28;65660;-38
2023/03/20 01:58:19;;;;;;;;;;;;;;;29.87;58.65;101070.63;5054114;28;69956;-38
2023/03/20 02:00:52;;;;;;;;;;;;;;;29.89;58.19;101076.63;5074753;27;66553;-39
2023/03/20 02:03:23;;;;;;;;;;;;;;;29.91;57.95;101088.06;5046301;28;69342;-38
2023/03/20 02:05:59;;;;;;;;;;;;;;;29.94;57.98;101081.41;5044930;28;68517;-38
2023/03/20 02:08:50;;;;;;;;;;;;;;;29.96;58.19;101085.56;5044172;28;69631;-40
2023/03/20 02:11:23;;;;;;;;;;;;;;;29.98;57.69;101085.38;5044345;28;65317;-38
2023/03/20 02:13:54;;;;;;;;;;;;;;;30.01;58.03;101084.97;5045062;28;69791;-39
2023/03/20 02:16:27;;;;;;;;;;;;;;;30.03;57.49;101080.16;5043905;28;66328;-38
2023/03/20 02:19:40;;;;;;;;;;;;;;;30.07;57.85;101086.81;5043881;28;69972;-40
2023/03/20 02:22:29;;;;;;;;;;;;;;;30.10;57.46;101072.88;5046058;28;66972;-39
2023/03/20 02:25:21;;;;;;;;;;;;;;;30.13;57.20;101080.56;5084792;27;70079;-38
2023/03/20 02:28:03;;;;;;;;;;;;;;;30.15;57.34;101075.78;5049682;28;66908;-38
2023/03/20 02:30:44;;;;;;;;;;;;;;;30.17;57.05;101070.13;5081994;27;70280;-39
2023/03/20 02:33:33;;;;;;;;;;;;;;;30.19;57.07;101063.47;5048711;28;66543;-39
2023/03/20 02:36:12;;;;;;;;;;;;;;;30.23;56.88;101063.94;5076306;27;70151;-39
2023/03/20 02:38:51;;;;;;;;;;;;;;;30.25;56.73;101073.47;5082174;27;66233;-39
2023/03/20 02:41:30;;;;;;;;;;;;;;;30.28;57.14;101067.69;5051000;27;69866;-39
2023/03/20 02:44:03;;;;;;;;;;;;;;;30.31;56.90;101076.38;5046127;28;66306;-38
2023/03/20 02:46:37;;;;;;;;;;;;;;;30.33;57.05;101067.03;5064218;27;70791;-38
2023/03/20 02:49:20;;;;;;;;;;;;;;;30.36;56.38;101060.34;5059602;27;66847;-38
2023/03/20 02:51:57;;;;;;;;;;;;;;;30.39;56.59;101058.03;5051997;28;70862;-39
2023/03/20 02:54:27;;;;;;;;;;;;;;;30.42;56.81;101062.19;5054991;28;65350;-40
2023/03/20 02:57:04;;;;;;;;;;;;;;;30.45;56.38;101056.34;5050508;28;69565;-38
2023/03/20 02:59:43;;;;;;;;;;;;;;;30.47;56.75;101055.09;5056035;27;67157;-39
2023/03/20 03:02:34;;;;;;;;;;;;;;;30.51;56.17;101063.66;5036291;28;70289;-38
2023/03/20 03:05:13;;;;;;;;;;;;;;;30.51;56.46;101042.00;5083402;27;67103;-38
2023/03/20 03:07:49;;;;;;;;;;;;;;;30.57;56.25;101054.66;5045543;28;69898;-39
2023/03/20 03:10:21;;;;;;;;;;;;;;;30.59;55.85;101047.16;5054776;27;65962;-39
2023/03/20 03:12:54;;;;;;;;;;;;;;;30.63;56.32;101037.56;5047114;28;70496;-39
2023/03/20 03:15:30;;;;;;;;;;;;;;;30.65;55.84;101051.72;5063070;27;66077;-38
2023/03/20 03:18:02;;;;;;;;;;;;;;;30.67;56.24;101038.81;5062104;27;69914;-37
2023/03/20 03:20:37;;;;;;;;;;;;;;;30.71;55.85;101040.03;5047476;28;66682;-40
2023/03/20 03:23:14;;;;;;;;;;;;;;;30.75;56.10;101036.88;5054316;28;70678;-39
2023/03/20 03:25:45;;;;;;;;;;;;;;;30.76;55.50;101036.69;5042959;28;66894;-39
2023/03/20 03:28:37;;;;;;;;;;;;;;;30.81;55.62;101033.34;5060464;27;70601;-39
2023/03/20 03:31:11;;;;;;;;;;;;;;;30.84;55.89;101027.47;5047552;27;66588;-38
2023/03/20 03:33:44;;;;;;;;;;;;;;;30.86;55.81;101025.41;5049243;28;70477;-43
2023/03/20 03:36:28;;;;;;;;;;;;;;;30.88;55.54;101024.13;5049493;28;66139;-39
2023/03/20 03:39:07;;;;;;;;;;;;;;;30.92;55.10;101019.09;5045492;28;69147;-40
2023/03/20 03:41:41;;;;;;;;;;;;;;;30.96;55.01;101014.94;5046065;28;66233;-39
2023/03/20 03:44:16;;;;;;;;;;;;;;;30.99;54.95;101014.50;5045425;28;70351;-38
2023/03/20 03:46:46;;;;;;;;;;;;;;;31.01;54.79;101006.13;5042300;28;66128;-39
2023/03/20 03:49:27;;;;;;;;;;;;;;;31.04;55.09;101006.53;5046311;27;70674;-39
2023/03/20 03:52:01;;;;;;;;;;;;;;;31.07;54.76;101002.56;5058530;27;65477;-39
2023/03/20 03:54:35;;;;;;;;;;;;;;;31.09;54.46;100993.19;5050653;27;70616;-39
2023/03/20 03:57:33;;;;;;;;;;;;;;;31.13;54.77;100994.38;5048346;27;66610;-40
2023/03/20 04:00:06;;;;;;;;;;;;;;;31.16;54.54;100985.81;5060152;27;70976;-40
2023/03/20 04:02:44;;;;;;;;;;;;;;;31.20;54.38;100977.25;5042524;28;66531;-39
2023/03/20 04:05:15;;;;;;;;;;;;;;;31.22;54.56;100969.72;5044868;27;70565;-40
2023/03/20 04:07:46;;;;;;;;;;;;;;;31.26;54.12;100970.94;5074378;27;66264;-42
2023/03/20 04:10:17;;;;;;;;;;;;;;;31.28;54.10;100966.13;5053508;27;70662;-39
2023/03/20 04:12:48;;;;;;;;;;;;;;;31.31;53.99;100952.13;5041415;28;67380;-42
2023/03/20 04:15:20;;;;;;;;;;;;;;;31.32;54.12;100949.22;5042562;28;70371;-39
2023/03/20 04:17:50;;;;;;;;;;;;;;;31.34;54.02;100951.69;5043774;28;67307;-40
2023/03/20 04:20:21;;;;;;;;;;;;;;;31.36;53.81;100944.19;5059149;27;69867;-38
2023/03/20 04:22:52;;;;;;;;;;;;;;;31.37;53.82;100945.84;5048851;27;67998;-42
2023/03/20 04:25:23;;;;;;;;;;;;;;;31.40;54.03;100937.31;5043564;28;69822;-41
2023/03/20 04:27:55;;;;;;;;;;;;;;;31.42;53.61;100937.88;5043909;27;65833;-39
2023/03/20 04:30:47;;;;;;;;;;;;;;;31.43;53.75;100939.56;5044534;28;70711;-40
2023/03/20 04:33:43;;;;;;;;;;;;;;;31.46;53.63;100939.13;5034150;28;65264;-40
2023/03/20 04:36:33;;;;;;;;;;;;;;;31.48;53.80;100925.31;5064907;27;69171;-38
2023/03/20 04:39:06;;;;;;;;;;;;;;;31.50;53.56;100929.47;5076296;27;65503;-41
2023/03/20 04:41:37;;;;;;;;;;;;;;;31.53;53.60;100925.47;5054900;28;69606;-38
2023/03/20 04:44:08;;;;;;;;;;;;;;;31.54;53.67;100916.31;5049544;27;67075;-38
2023/03/20 04:46:39;;;;;;;;;;;;;;;31.57;53.54;100918.56;5070909;27;69550;-38
2023/03/20 04:49:15;;;;;;;;;;;;;;;31.57;53.32;100911.25;5046145;28;66419;-39
2023/03/20 04:51:45;;;;;;;;;;;;;;;31.59;53.67;100917.31;5051503;28;70628;-38
2023/03/20 04:54:21;;;;;;;;;;;;;;;31.64;53.38;100907.66;5045947;28;66939;-38
2023/03/20 04:56:52;;;;;;;;;;;;;;;31.67;53.32;100899.06;5083421;27;69536;-40
2023/03/20 04:59:22;;;;;;;;;;;;;;;31.68;53.34;100893.44;5043165;28;67002;-39
2023/03/20 05:01:52;;;;;;;;;;;;;;;31.71;52.95;100892.97;5054012;27;68721;-42
2023/03/20 05:04:23;;;;;;;;;;;;;;;31.74;53.17;100880.84;5053397;28;66915;-43
2023/03/20 05:06:53;;;;;;;;;;;;;;;31.76;53.19;100890.41;5047360;28;70475;-38
2023/03/20 05:09:29;;;;;;;;;;;;;;;31.79;52.95;100889.13;5041147;28;65761;-40
2023/03/20 05:12:03;;;;;;;;;;;;;;;31.81;52.97;100876.16;5044911;28;70636;-38
2023/03/20 05:14:41;;;;;;;;;;;;;;;31.82;52.65;100867.81;5047124;28;66657;-41
2023/03/20 05:17:30;;;;;;;;;;;;;;;31.87;52.96;100864.38;5054223;27;70323;-39
2023/03/20 05:20:12;;;;;;;;;;;;;;;31.89;52.92;100856.03;5056973;28;66281;-43
2023/03/20 05:23:00;;;;;;;;;;;;;;;31.92;53.08;100853.72;5044920;28;69145;-41
2023/03/20 05:25:57;;;;;;;;;;;;;;;31.93;52.54;100847.25;5054893;27;67177;-41
2023/03/20 05:28:45;;;;;;;;;;;;;;;31.97;52.85;100829.44;5043095;27;70374;-41
2023/03/20 05:31:38;;;;;;;;;;;;;;;32.00;52.57;100822.75;5048631;28;66136;-40
2023/03/20 05:34:17;;;;;;;;;;;;;;;32.01;52.35;100811.66;5043324;27;70699;-40
2023/03/20 05:37:08;;;;;;;;;;;;;;;32.04;52.36;100805.78;5046974;28;64935;-42
2023/03/20 05:40:02;;;;;;;;;;;;;;;32.08;52.26;100805.31;5081393;27;70702;-40
2023/03/20 05:42:58;;;;;;;;;;;;;;;32.10;52.26;100798.59;5035762;28;66700;-38
2023/03/20 05:45:37;;;;;;;;;;;;;;;32.12;52.17;100790.22;5089841;27;69880;-39
2023/03/20 05:48:25;;;;;;;;;;;;;;;32.15;52.40;100784.31;5041516;28;66096;-39
2023/03/20 05:51:15;;;;;;;;;;;;;;;32.17;52.34;100774.06;5044485;28;68934;-38
2023/03/20 05:54:00;;;;;;;;;;;;;;;32.20;52.13;100770.88;5052247;28;65460;-39
2023/03/20 05:56:54;;;;;;;;;;;;;;;32.22;52.19;100763.34;5042340;28;70963;-40
2023/03/20 05:59:58;;;;;;;;;;;;;;;32.25;52.19;100752.03;5043325;28;65818;-40
2023/03/20 06:02:50;;;;;;;;;;;;;;;32.27;52.04;100755.34;5047090;28;69912;-39
2023/03/20 06:05:46;;;;;;;;;;;;;;;32.30;52.03;100737.78;5045059;28;67407;-39
2023/03/20 06:08:17;;;;;;;;;;;;;;;32.32;51.99;100725.63;5050801;28;70457;-39
2023/03/20 06:11:10;;;;;;;;;;;;;;;32.35;51.66;100729.75;5052031;28;65447;-40
2023/03/20 06:13:42;;;;;;;;;;;;;;;32.37;51.75;100723.00;5048915;28;70302;-40
2023/03/20 06:16:28;;;;;;;;;;;;;;;32.38;51.69;100719.25;5062608;27;66117;-38
2023/03/20 06:18:59;;;;;;;;;;;;;;;32.42;51.74;100703.31;5050124;28;70141;-40
2023/03/20 06:21:31;;;;;;;;;;;;;;;32.44;51.61;100701.19;5051750;27;65547;-39
2023/03/20 06:24:02;;;;;;;;;;;;;;;32.47;51.60;100689.88;5076537;27;69620;-38
2023/03/20 06:26:33;;;;;;;;;;;;;;;32.51;51.51;100696.50;5080758;27;67246;-39
2023/03/20 06:29:08;;;;;;;;;;;;;;;32.54;51.30;100695.19;5035959;28;69952;-42
2023/03/20 06:31:38;;;;;;;;;;;;;;;32.56;51.37;100687.66;5048116;28;66765;-39
2023/03/20 06:34:13;;;;;;;;;;;;;;;32.59;51.26;100681.75;5036946;28;69879;-39
2023/03/20 06:36:47;;;;;;;;;;;;;;;32.62;51.30;100676.66;5049476;28;66030;-40
2023/03/20 06:39:21;;;;;;;;;;;;;;;32.65;51.16;100676.19;5069714;27;69036;-39
2023/03/20 06:41:53;;;;;;;;;;;;;;;32.68;51.16;100669.44;5082024;27;66909;-39
2023/03/20 06:44:25;;;;;;;;;;;;;;;32.70;51.23;100667.31;5043096;28;70321;-39
2023/03/20 06:47:08;;;;;;;;;;;;;;;32.74;51.02;100663.09;5031260;28;66431;-39
2023/03/20 06:49:40;;;;;;;;;;;;;;;32.76;51.02;100660.13;5053839;28;70768;-39
2023/03/20 06:52:16;;;;;;;;;;;;;;;32.79;50.92;100654.19;5039871;27;65492;-39
2023/03/20 06:54:56;;;;;;;;;;;;;;;32.81;50.75;100647.47;5054940;27;70384;-39
2023/03/20 06:57:27;;;;;;;;;;;;;;;32.83;50.73;100645.34;5044455;28;65802;-39
2023/03/20 06:59:57;;;;;;;;;;;;;;;32.86;50.89;100644.03;5052894;28;70241;-38
2023/03/20 07:02:29;;;;;;;;;;;;;;;32.87;50.81;100641.06;5054106;28;66534;-38
2023/03/20 07:05:00;;;;;;;;;;;;;;;32.89;50.88;100638.13;5060797;27;70605;-39
2023/03/20 07:07:30;;;;;;;;;;;;;;;32.93;50.85;100636.56;5025532;28;65724;-40
2023/03/20 07:10:01;;;;;;;;;;;;;;;32.94;50.81;100630.09;5046910;28;69790;-38
2023/03/20 07:12:31;;;;;;;;;;;;;;;32.97;50.52;100623.34;5040564;28;65565;-39
2023/03/20 07:15:04;;;;;;;;;;;;;;;32.77;50.69;100586.53;5064080;27;69511;-38
2023/03/20 07:17:34;;;;;;;;;;;;;;;33.04;50.54;100619.47;5045838;28;66906;-40
2023/03/20 07:20:07;;;;;;;;;;;;;;;33.08;50.33;100614.38;5081330;27;70683;-39
2023/03/20 07:22:37;;;;;;;;;;;;;;;33.11;50.27;100613.88;5046137;28;66677;-39
2023/03/20 07:25:21;;;;;;;;;;;;;;;33.14;50.08;100607.94;5054755;28;70314;-40
2023/03/20 07:28:12;;;;;;;;;;;;;;;33.17;50.51;100610.19;5057393;27;66285;-42
2023/03/20 07:30:49;;;;;;;;;;;;;;;33.19;50.18;100610.78;5046855;27;70147;-39
2023/03/20 07:33:19;;;;;;;;;;;;;;;33.21;50.30;100608.66;5074973;27;65906;-38
2023/03/20 07:35:52;;;;;;;;;;;;;;;33.23;49.88;100606.47;5050805;27;70893;-39
2023/03/20 07:38:23;;;;;;;;;;;;;;;33.27;49.79;100607.66;5042039;27;66128;-39
2023/03/20 07:41:05;;;;;;;;;;;;;;;33.30;50.01;100590.88;5055850;28;69762;-38
2023/03/20 07:43:40;;;;;;;;;;;;;;;33.31;49.75;100584.34;5055862;28;66470;-39
2023/03/20 07:46:21;;;;;;;;;;;;;;;33.36;49.78;100592.59;5049817;28;70574;-38
2023/03/20 07:48:52;;;;;;;;;;;;;;;33.39;49.93;100583.13;5033301;28;66117;-40
2023/03/20 07:51:23;;;;;;;;;;;;;;;33.42;49.77;100581.81;5056954;27;70257;-39
2023/03/20 07:53:54;;;;;;;;;;;;;;;33.44;50.00;100575.06;5043643;28;66002;-40
2023/03/20 07:56:24;;;;;;;;;;;;;;;33.49;49.63;100585.19;5077747;27;70310;-40
2023/03/20 07:58:54;;;;;;;;;;;;;;;33.50;49.69;100579.53;5049974;28;66086;-39
2023/03/20 08:01:25;;;;;;;;;;;;;;;33.54;49.67;100585.31;5043347;28;70634;-40
2023/03/20 08:03:55;;;;;;;;;;;;;;;33.58;49.81;100583.78;5041945;28;65959;-40
2023/03/20 08:06:26;;;;;;;;;;;;;;;33.61;49.42;100572.41;5039263;27;69824;-39
2023/03/20 08:08:56;;;;;;;;;;;;;;;33.64;49.66;100576.53;5043295;28;66873;-39
2023/03/20 08:11:26;;;;;;;;;;;;;;;33.65;49.65;100570.00;5047949;28;70108;-39
2023/03/20 08:13:56;;;;;;;;;;;;;;;33.69;49.29;100577.44;5043579;28;67165;-39
2023/03/20 08:16:26;;;;;;;;;;;;;;;33.72;49.67;100574.22;5050884;28;70192;-38
2023/03/20 08:19:00;;;;;;;;;;;;;;;33.76;49.41;100574.53;5041311;28;65918;-39
2023/03/20 08:21:31;;;;;;;;;;;;;;;33.79;49.29;100572.16;5042649;27;70593;-39
2023/03/20 08:24:01;;;;;;;;;;;;;;;33.84;49.03;100576.03;5042138;28;67187;-39
2023/03/20 08:26:31;;;;;;;;;;;;;;;33.87;49.15;100567.38;5042807;28;69356;-39
2023/03/20 08:29:02;;;;;;;;;;;;;;;33.90;48.87;100570.41;5047416;27;66752;-38
2023/03/20 08:31:32;;;;;;;;;;;;;;;33.92;49.32;100565.53;5049365;28;70539;-39
2023/03/20 08:34:02;;;;;;;;;;;;;;;33.95;49.25;100561.50;5043389;28;65357;-40
2023/03/20 08:36:32;;;;;;;;;;;;;;;33.98;49.09;100569.16;5044453;28;69017;-41
2023/03/20 08:39:02;;;;;;;;;;;;;;;34.01;48.63;100553.16;5050454;28;65933;-39
2023/03/20 08:41:33;;;;;;;;;;;;;;;34.04;48.99;100551.84;5044508;28;69052;-41
2023/03/20 08:44:04;;;;;;;;;;;;;;;34.08;49.03;100563.09;5045634;27;65958;-39
2023/03/20 08:46:35;;;;;;;;;;;;;;;34.12;48.89;100569.69;5044189;28;70721;-40
2023/03/20 08:49:06;;;;;;;;;;;;;;;34.16;48.83;100573.56;5042256;28;66357;-37
2023/03/20 08:51:36;;;;;;;;;;;;;;;34.17;48.75;100573.31;5040936;28;69910;-42
2023/03/20 08:54:06;;;;;;;;;;;;;;;34.22;48.36;100581.53;5039346;28;66676;-41
2023/03/20 08:56:36;;;;;;;;;;;;;;;34.25;48.48;100570.16;5042338;27;69820;-42
2023/03/20 08:59:07;;;;;;;;;;;;;;;34.30;48.28;100577.56;5047506;27;64671;-38
2023/03/20 09:01:37;;;;;;;;;;;;;;;34.34;48.34;100581.44;5052908;28;70354;-40
2023/03/20 09:04:17;;;;;;;;;;;;;;;34.37;47.89;100577.38;5042154;28;66713;-41
2023/03/20 09:06:48;;;;;;;;;;;;;;;34.41;47.61;100584.00;5054247;28;69353;-41
2023/03/20 09:09:20;;;;;;;;;;;;;;;34.43;47.65;100581.81;5053306;28;66842;-39
2023/03/20 09:11:50;;;;;;;;;;;;;;;34.47;48.00;100593.88;5053427;28;69078;-39
2023/03/20 09:14:20;;;;;;;;;;;;;;;34.51;47.47;100584.09;5049950;28;65136;-39
2023/03/20 09:16:51;;;;;;;;;;;;;;;34.55;47.47;100585.25;5054864;28;70333;-39
2023/03/20 09:19:21;;;;;;;;;;;;;;;34.58;47.35;100587.50;5057257;28;66072;-42
2023/03/20 09:21:51;;;;;;;;;;;;;;;34.61;47.44;100588.91;5051782;28;70098;-40
2023/03/20 09:24:21;;;;;;;;;;;;;;;34.62;46.99;100580.47;5074787;27;64429;-41
2023/03/20 09:26:52;;;;;;;;;;;;;;;34.64;46.84;100583.78;5052328;28;70742;-39
2023/03/20 09:29:22;;;;;;;;;;;;;;;34.68;46.71;100574.00;5045191;27;66012;-40
2023/03/20 09:31:53;;;;;;;;;;;;;;;34.70;47.03;100587.38;5043234;28;69688;-42
2023/03/20 09:34:23;;;;;;;;;;;;;;;34.72;46.46;100584.41;5059630;27;65674;-39
2023/03/20 09:36:53;;;;;;;;;;;;;;;34.74;46.37;100583.06;5047859;27;70575;-40
2023/03/20 09:39:24;;;;;;;;;;;;;;;34.75;46.37;100578.47;5052638;28;66434;-39
2023/03/20 09:41:55;;;;;;;;;;;;;;;34.77;46.32;100590.75;5050293;28;69677;-39
2023/03/20 09:44:44;;;;;;;;;;;;;;;34.77;46.09;100588.03;5048204;28;66728;-39
2023/03/20 09:47:31;;;;;;;;;;;;;;;34.80;46.61;100589.38;5045662;27;69822;-38
2023/03/20 09:50:07;;;;;;;;;;;;;;;34.83;46.03;100586.19;5046850;28;66640;-40
2023/03/20 09:52:40;;;;;;;;;;;;;;;34.82;46.45;100584.53;5042993;28;70372;-42
2023/03/20 09:55:15;;;;;;;;;;;;;;;34.84;46.29;100587.81;5046346;28;66960;-39
2023/03/20 09:57:48;;;;;;;;;;;;;;;34.84;45.84;100587.81;5052219;27;71287;-43
2023/03/20 10:00:21;;;;;;;;;;;;;;;34.85;45.88;100594.91;5051479;28;67350;-42
2023/03/20 10:03:02;;;;;;;;;;;;;;;34.86;46.10;100594.66;5048013;28;69317;-40
2023/03/20 10:05:38;;;;;;;;;;;;;;;34.87;45.61;100598.22;5051268;28;64497;-39
2023/03/20 10:08:15;;;;;;;;;;;;;;;34.87;46.22;100603.66;5053550;28;70274;-39
2023/03/20 10:10:45;;;;;;;;;;;;;;;34.88;45.82;100608.03;5045322;28;66673;-40
2023/03/20 10:13:30;;;;;;;;;;;;;;;34.88;46.12;100610.75;5040231;28;70206;-41
2023/03/20 10:16:06;;;;;;;;;;;;;;;34.87;45.52;100609.09;5055689;28;66047;-41
2023/03/20 10:18:38;;;;;;;;;;;;;;;34.87;45.92;100606.38;5047664;28;69759;-42
2023/03/20 10:21:12;;;;;;;;;;;;;;;34.77;46.38;100603.53;5040163;28;66142;-44
2023/03/20 10:23:46;;;;;;;;;;;;;;;34.77;46.73;100608.97;5049209;27;70360;-44
2023/03/20 10:26:18;;;;;;;;;;;;;;;34.74;46.58;100614.94;5048148;27;65766;-41
2023/03/20 10:28:51;;;;;;;;;;;;;;;34.69;46.12;100611.09;5050439;28;70670;-43
2023/03/20 10:31:29;;;;;;;;;;;;;;;34.67;46.36;100626.84;5044106;28;65550;-40
2023/03/20 10:34:17;;;;;;;;;;;;;;;34.63;46.43;100625.72;5048718;28;69832;-40
2023/03/20 10:36:58;;;;;;;;;;;;;;;34.61;46.34;100627.03;5051686;28;66700;-40
2023/03/20 10:39:37;;;;;;;;;;;;;;;34.63;46.57;100631.16;5046483;28;70659;-40
2023/03/20 10:42:12;;;;;;;;;;;;;;;34.56;47.65;100635.97;5052744;28;67208;-40
2023/03/20 10:44:46;;;;;;;;;;;;;;;34.44;47.75;100627.88;5048885;28;70171;-43
2023/03/20 10:47:18;;;;;;;;;;;;;;;34.20;48.13;100640.84;5053640;27;66641;-42
2023/03/20 10:49:51;;;;;;;;;;;;;;;34.05;49.17;100634.38;5053986;28;69497;-41
2023/03/20 10:52:31;;;;;;;;;;;;;;;33.92;49.51;100636.28;5043169;28;66223;-43
2023/03/20 10:55:05;;;;;;;;;;;;;;;33.85;50.06;100640.25;5042448;28;69640;-40
2023/03/20 10:57:38;;;;;;;;;;;;;;;33.91;50.14;100650.97;5043467;28;66462;-43
2023/03/20 11:00:14;;;;;;;;;;;;;;;34.08;49.47;100645.56;5055227;28;69444;-41
2023/03/20 11:02:45;;;;;;;;;;;;;;;34.18;48.80;100651.16;5043935;28;66286;-41
2023/03/20 11:05:23;;;;;;;;;;;;;;;34.25;48.43;100656.44;5048696;28;70914;-42
2023/03/20 11:08:02;;;;;;;;;;;;;;;34.29;48.86;100656.78;5049919;28;66951;-42
2023/03/20 11:10:34;;;;;;;;;;;;;;;34.31;48.71;100666.34;5047300;28;69468;-41
2023/03/20 11:13:15;;;;;;;;;;;;;;;34.31;48.92;100669.06;5054330;28;66020;-42
2023/03/20 11:15:46;;;;;;;;;;;;;;;34.32;48.68;100661.72;5061730;27;69727;-42
2023/03/20 11:18:16;;;;;;;;;;;;;;;34.31;48.51;100679.13;5057744;28;66209;-45
2023/03/20 11:20:54;;;;;;;;;;;;;;;34.29;49.00;100686.72;5045694;28;69658;-40
2023/03/20 11:23:32;;;;;;;;;;;;;;;34.26;49.06;100686.13;5049306;28;66890;-43
2023/03/20 11:26:03;;;;;;;;;;;;;;;34.24;49.33;100677.41;5056545;28;70356;-41
2023/03/20 11:28:35;;;;;;;;;;;;;;;34.21;49.42;100688.81;5044812;28;66126;-45
2023/03/20 11:31:11;;;;;;;;;;;;;;;34.19;49.37;100690.94;5047263;27;69850;-40
2023/03/20 11:33:45;;;;;;;;;;;;;;;34.16;49.25;100696.88;5047150;27;66308;-42
2023/03/20 11:36:23;;;;;;;;;;;;;;;34.13;49.30;100700.09;5043074;28;70210;-43
2023/03/20 11:39:15;;;;;;;;;;;;;;;34.11;49.71;100699.50;5046743;28;65518;-44
2023/03/20 11:41:45;;;;;;;;;;;;;;;34.07;50.02;100702.97;5045041;28;70576;-42
2023/03/20 11:44:35;;;;;;;;;;;;;;;34.03;50.02;100702.59;5047712;28;66432;-42
2023/03/20 11:47:17;;;;;;;;;;;;;;;34.02;50.23;100720.03;5044453;28;70291;-43
2023/03/20 11:49:58;;;;;;;;;;;;;;;33.98;50.34;100713.41;5042542;28;66612;-42
2023/03/20 11:52:32;;;;;;;;;;;;;;;33.96;50.59;100723.69;5042853;27;69859;-45
2023/03/20 11:55:05;;;;;;;;;;;;;;;33.94;50.61;100736.75;5052723;28;66186;-45
2023/03/20 11:57:36;;;;;;;;;;;;;;;33.91;50.63;100738.06;5047677;28;70455;-41
2023/03/20 12:00:17;;;;;;;;;;;;;;;33.88;50.48;100734.97;5047730;27;66485;-44
2023/03/20 12:02:47;;;;;;;;;;;;;;;33.81;51.06;100738.69;5041341;28;70733;-41
2023/03/20 12:05:29;;;;;;;;;;;;;;;33.52;52.86;100737.03;5044342;27;66602;-39
2023/03/20 12:08:05;;;;;;;;;;;;;;;33.38;53.02;100740.00;5044449;27;70517;-45
2023/03/20 12:10:40;;;;;;;;;;;;;;;33.22;54.46;100751.63;5046820;28;66251;-41
2023/03/20 12:13:20;;;;;;;;;;;;;;;33.05;56.63;100750.72;5042520;27;69946;-41
2023/03/20 12:15:53;;;;;;;;;;;;;;;32.90;56.83;100754.72;5044593;28;65555;-41
2023/03/20 12:18:26;;;;;;;;;;;;;;;32.84;57.31;100768.41;5044294;28;70017;-39
2023/03/20 12:21:22;;;;;;;;;;;;;;;32.79;58.29;100774.56;5049689;27;66560;-43
2023/03/20 12:23:53;;;;;;;;;;;;;;;32.77;58.02;100775.88;5048963;28;70759;-43
2023/03/20 12:26:39;;;;;;;;;;;;;;;32.78;57.87;100777.50;5043629;28;66552;-45
2023/03/20 12:29:27;;;;;;;;;;;;;;;32.78;57.90;100780.22;5049792;28;70156;-45
2023/03/20 12:32:01;;;;;;;;;;;;;;;32.74;57.89;100777.16;5040971;28;66043;-45
2023/03/20 12:34:59;;;;;;;;;;;;;;;32.73;57.78;100786.34;5051915;28;69247;-41
2023/03/20 12:37:31;;;;;;;;;;;;;;;32.59;57.14;100795.78;5053232;28;66680;-43
2023/03/20 12:40:03;;;;;;;;;;;;;;;32.41;57.21;100799.41;5050702;28;70082;-41
2023/03/20 12:42:33;;;;;;;;;;;;;;;32.28;57.34;100812.09;5052183;28;67002;-44
2023/03/20 12:45:18;;;;;;;;;;;;;;;32.21;57.63;100816.00;5050834;28;68974;-41
2023/03/20 12:47:50;;;;;;;;;;;;;;;32.08;58.59;100816.16;5043965;27;66728;-42
2023/03/20 12:50:35;;;;;;;;;;;;;;;32.01;58.67;100825.25;5076671;27;69766;-42
2023/03/20 12:53:23;;;;;;;;;;;;;;;31.92;59.17;100823.88;5045740;28;65688;-39
2023/03/20 12:56:02;;;;;;;;;;;;;;;31.86;59.46;100821.22;5053099;28;70526;-41
2023/03/20 12:58:39;;;;;;;;;;;;;;;31.81;59.63;100827.34;5049768;28;66711;-38
2023/03/20 13:01:18;;;;;;;;;;;;;;;31.77;59.83;100837.81;5045544;27;69393;-39
2023/03/20 13:04:07;;;;;;;;;;;;;;;31.71;60.09;100844.16;5043698;28;66035;-39
2023/03/20 13:06:37;;;;;;;;;;;;;;;31.66;60.30;100838.56;5046300;28;69636;-41
2023/03/20 13:09:25;;;;;;;;;;;;;;;31.66;60.67;100837.75;5048387;28;66564;-39
2023/03/20 13:12:14;;;;;;;;;;;;;;;31.61;60.75;100844.66;5046189;28;70321;-41
2023/03/20 13:14:51;;;;;;;;;;;;;;;31.55;60.50;100851.00;5045075;27;66064;-41
2023/03/20 13:17:21;;;;;;;;;;;;;;;31.51;60.73;100849.81;5044669;28;69745;-41
2023/03/20 13:20:09;;;;;;;;;;;;;;;31.47;60.26;100853.19;5042743;28;65770;-41